createdAt,value
2019-04-20T00:00:23.376Z,14.6
2019-04-20T00:01:03.785Z,14.63
2019-04-20T00:01:44.889Z,14.71
2019-04-20T00:02:25.411Z,14.64
2019-04-20T00:03:05.661Z,14.69
2019-04-20T00:03:46.751Z,14.78
2019-04-20T00:04:30.898Z,14.66
2019-04-20T00:05:07.413Z,14.71
2019-04-20T00:05:46.633Z,14.64
2019-04-20T00:06:27.160Z,14.69
2019-04-20T00:07:08.065Z,14.64
2019-04-20T00:07:48.046Z,14.66
2019-04-20T00:08:31.217Z,14.63
2019-04-20T00:09:12.854Z,14.64
2019-04-20T00:09:56.209Z,14.59
2019-04-20T00:10:30.697Z,14.6
2019-04-20T00:11:16.050Z,14.66
2019-04-20T00:12:01.430Z,14.59
2019-04-20T00:12:42.172Z,14.57
2019-04-20T00:13:21.432Z,14.61
2019-04-20T00:13:59.828Z,14.61
2019-04-20T00:14:34.157Z,14.53
2019-04-20T00:15:13.099Z,14.54
2019-04-20T00:15:53.607Z,14.56
2019-04-20T00:16:33.758Z,14.48
2019-04-20T00:17:13.703Z,14.45
2019-04-20T00:17:58.659Z,14.44
2019-04-20T00:18:41.055Z,14.46
2019-04-20T00:19:22.341Z,14.46
2019-04-20T00:19:57.698Z,14.49
2019-04-20T00:20:37.096Z,14.57
2019-04-20T00:21:16.287Z,14.46
2019-04-20T00:22:00.209Z,14.49
2019-04-20T00:22:42.439Z,14.52
2019-04-20T00:23:22.540Z,14.57
2019-04-20T00:24:00.962Z,14.57
2019-04-20T00:24:39.227Z,14.56
2019-04-20T00:25:20.833Z,14.61
2019-04-20T00:26:06.660Z,14.48
2019-04-20T00:27:42.578Z,14.61
2019-04-20T00:28:19.353Z,14.48
2019-04-20T00:29:00.000Z,14.49
2019-04-20T00:29:39.163Z,14.53
2019-04-20T00:30:24.671Z,14.44
2019-04-20T00:30:58.477Z,14.38
2019-04-20T00:31:34.954Z,14.41
2019-04-20T00:32:12.260Z,14.3
2019-04-20T00:32:55.412Z,14.29
2019-04-20T00:33:36.756Z,14.38
2019-04-20T00:34:11.888Z,14.21
2019-04-20T00:34:45.875Z,14.27
2019-04-20T00:35:25.119Z,14.17
2019-04-20T00:36:05.336Z,14.13
2019-04-20T00:36:45.357Z,14.13
2019-04-20T00:37:25.491Z,14.08
2019-04-20T00:38:05.872Z,14.04
2019-04-20T00:38:51.916Z,14.01
2019-04-20T00:39:27.831Z,13.98
2019-04-20T00:40:07.836Z,13.99
2019-04-20T00:40:49.428Z,13.98
2019-04-20T00:41:27.948Z,13.91
2019-04-20T00:42:11.582Z,13.9
2019-04-20T00:42:52.360Z,13.88
2019-04-20T00:43:32.763Z,13.93
2019-04-20T00:44:15.758Z,13.9
2019-04-20T00:44:56.152Z,13.87
2019-04-20T00:45:33.652Z,13.83
2019-04-20T00:46:16.469Z,13.88
2019-04-20T00:47:04.202Z,13.81
2019-04-20T00:47:41.765Z,13.71
2019-04-20T00:48:22.296Z,13.76
2019-04-20T00:48:58.898Z,13.68
2019-04-20T00:49:44.387Z,13.66
2019-04-20T00:50:28.053Z,13.69
2019-04-20T00:51:02.821Z,13.66
2019-04-20T00:51:50.552Z,13.61
2019-04-20T00:52:29.762Z,13.62
2019-04-20T00:53:06.610Z,13.69
2019-04-20T00:53:39.549Z,13.54
2019-04-20T00:54:16.025Z,13.57
2019-04-20T00:54:56.171Z,13.61
2019-04-20T00:55:36.580Z,13.57
2019-04-20T00:56:17.999Z,13.59
2019-04-20T00:57:09.178Z,13.57
2019-04-20T00:57:45.413Z,13.57
2019-04-20T00:58:25.870Z,13.62
2019-04-20T00:59:12.854Z,13.53
2019-04-20T00:59:58.885Z,13.61
2019-04-20T01:00:36.745Z,13.51
2019-04-20T01:01:19.775Z,13.46
2019-04-20T01:01:58.196Z,13.44
2019-04-20T01:02:29.463Z,13.48
2019-04-20T01:03:13.235Z,13.44
2019-04-20T01:03:54.683Z,13.44
2019-04-20T01:04:40.562Z,13.31
2019-04-20T01:05:17.774Z,13.31
2019-04-20T01:05:58.008Z,13.31
2019-04-20T01:06:36.475Z,13.38
2019-04-20T01:07:14.903Z,13.31
2019-04-20T01:07:50.236Z,13.29
2019-04-20T01:08:25.391Z,13.29
2019-04-20T01:09:05.446Z,13.28
2019-04-20T01:09:45.437Z,13.25
2019-04-20T01:10:28.118Z,13.27
2019-04-20T01:11:06.079Z,13.22
2019-04-20T01:11:48.176Z,13.24
2019-04-20T01:12:30.225Z,13.22
2019-04-20T01:13:13.667Z,13.21
2019-04-20T01:13:52.464Z,13.17
2019-04-20T01:14:34.737Z,13.1
2019-04-20T01:15:11.719Z,13.13
2019-04-20T01:15:55.036Z,13.14
2019-04-20T01:16:38.445Z,13.13
2019-04-20T01:17:11.906Z,13.04
2019-04-20T01:17:49.687Z,13.07
2019-04-20T01:18:30.078Z,13.01
2019-04-20T01:19:10.486Z,12.96
2019-04-20T01:19:52.652Z,12.98
2019-04-20T01:20:31.262Z,12.92
2019-04-20T01:21:16.413Z,12.99
2019-04-20T01:21:59.575Z,12.96
2019-04-20T01:22:40.055Z,12.96
2019-04-20T01:23:17.164Z,12.95
2019-04-20T01:23:58.210Z,12.95
2019-04-20T01:24:36.951Z,12.96
2019-04-20T01:25:21.726Z,12.94
2019-04-20T01:26:00.187Z,12.98
2019-04-20T01:26:41.887Z,13.01
2019-04-20T01:27:27.066Z,12.96
2019-04-20T01:28:17.455Z,12.89
2019-04-20T01:28:50.979Z,12.98
2019-04-20T01:29:24.892Z,12.87
2019-04-20T01:30:05.721Z,12.87
2019-04-20T01:30:43.024Z,12.8
2019-04-20T01:31:27.059Z,12.85
2019-04-20T01:32:10.306Z,12.96
2019-04-20T01:32:54.922Z,12.81
2019-04-20T01:33:31.551Z,12.79
2019-04-20T01:34:08.125Z,12.79
2019-04-20T01:34:52.230Z,12.76
2019-04-20T01:35:39.018Z,12.77
2019-04-20T01:36:19.209Z,12.81
2019-04-20T01:36:55.486Z,12.8
2019-04-20T01:37:32.682Z,12.73
2019-04-20T01:38:20.758Z,12.63
2019-04-20T01:38:56.133Z,12.71
2019-04-20T01:39:31.592Z,12.69
2019-04-20T01:40:04.790Z,12.66
2019-04-20T01:40:44.351Z,12.58
2019-04-20T01:41:24.394Z,12.63
2019-04-20T01:42:04.638Z,12.59
2019-04-20T01:42:44.977Z,12.59
2019-04-20T01:43:25.365Z,12.58
2019-04-20T01:44:07.042Z,12.56
2019-04-20T01:44:49.085Z,12.59
2019-04-20T01:45:31.085Z,12.56
2019-04-20T01:46:11.778Z,12.59
2019-04-20T01:46:53.199Z,12.56
2019-04-20T01:47:31.838Z,12.58
2019-04-20T01:48:08.821Z,12.54
2019-04-20T01:48:48.507Z,12.44
2019-04-20T01:49:32.294Z,12.51
2019-04-20T01:50:14.036Z,12.52
2019-04-20T01:50:59.198Z,12.44
2019-04-20T01:51:35.081Z,12.55
2019-04-20T01:52:18.810Z,12.49
2019-04-20T01:53:01.407Z,12.46
2019-04-20T01:53:50.183Z,12.44
2019-04-20T01:54:25.745Z,12.48
2019-04-20T01:55:11.253Z,12.46
2019-04-20T01:55:45.337Z,12.44
2019-04-20T01:56:27.185Z,12.48
2019-04-20T01:57:01.566Z,12.51
2019-04-20T01:57:54.422Z,12.4
2019-04-20T01:58:34.606Z,12.46
2019-04-20T01:59:10.039Z,12.4
2019-04-20T01:59:45.856Z,12.37
2019-04-20T02:00:20.990Z,12.36
2019-04-20T02:00:56.307Z,12.44
2019-04-20T02:01:39.052Z,12.33
2019-04-20T02:02:19.324Z,12.37
2019-04-20T02:03:01.330Z,12.33
2019-04-20T02:03:42.981Z,12.29
2019-04-20T02:04:24.700Z,12.36
2019-04-20T02:05:04.367Z,12.29
2019-04-20T02:05:39.024Z,12.21
2019-04-20T02:06:22.052Z,12.25
2019-04-20T02:07:01.904Z,12.36
2019-04-20T02:07:44.363Z,12.29
2019-04-20T02:08:22.854Z,12.37
2019-04-20T02:09:05.227Z,12.37
2019-04-20T02:09:46.372Z,12.34
2019-04-20T02:10:30.841Z,12.33
2019-04-20T02:11:04.292Z,12.33
2019-04-20T02:11:45.085Z,12.19
2019-04-20T02:12:26.020Z,12.26
2019-04-20T02:13:05.852Z,12.29
2019-04-20T02:13:49.763Z,12.3
2019-04-20T02:14:32.089Z,12.31
2019-04-20T02:15:06.035Z,12.3
2019-04-20T02:15:48.366Z,12.41
2019-04-20T02:16:33.506Z,12.33
2019-04-20T02:17:16.625Z,12.34
2019-04-20T02:17:59.250Z,12.34
2019-04-20T02:18:35.772Z,12.36
2019-04-20T02:19:22.800Z,12.34
2019-04-20T02:20:04.410Z,12.33
2019-04-20T02:20:42.695Z,12.38
2019-04-20T02:21:23.165Z,12.3
2019-04-20T02:22:02.302Z,12.26
2019-04-20T02:22:46.151Z,12.36
2019-04-20T02:23:20.837Z,12.38
2019-04-20T02:23:54.548Z,12.33
2019-04-20T02:24:29.900Z,12.29
2019-04-20T02:25:10.058Z,12.25
2019-04-20T02:25:50.344Z,12.18
2019-04-20T02:26:30.693Z,12.12
2019-04-20T02:27:11.125Z,12.16
2019-04-20T02:27:55.308Z,12.13
2019-04-20T02:28:53.435Z,12.12
2019-04-20T02:29:34.611Z,12.12
2019-04-20T02:30:20.683Z,12.12
2019-04-20T02:31:12.947Z,12.12
2019-04-20T02:33:16.411Z,12.11
2019-04-20T02:33:46.846Z,12.05
2019-04-20T02:34:31.354Z,12
2019-04-20T02:35:52.593Z,12.03
2019-04-20T02:36:50.623Z,12.01
2019-04-20T02:37:23.423Z,12.04
2019-04-20T02:38:02.659Z,11.97
2019-04-20T02:38:35.869Z,11.9
2019-04-20T02:39:50.679Z,11.96
2019-04-20T02:41:09.275Z,11.9
2019-04-20T02:42:33.734Z,11.88
2019-04-20T02:45:17.182Z,11.9
2019-04-20T02:45:50.378Z,11.82
2019-04-20T02:46:30.951Z,11.85
2019-04-20T02:47:29.946Z,11.96
2019-04-20T02:47:52.722Z,11.93
2019-04-20T02:48:29.478Z,11.75
2019-04-20T02:49:28.939Z,11.78
2019-04-20T02:50:35.937Z,11.62
2019-04-20T02:51:12.299Z,11.67
2019-04-20T02:52:48.292Z,11.67
2019-04-20T02:53:19.879Z,11.67
2019-04-20T02:54:14.778Z,11.64
2019-04-20T02:55:22.330Z,11.56
2019-04-20T02:56:56.789Z,11.51
2019-04-20T02:57:17.585Z,11.46
2019-04-20T02:58:41.012Z,11.49
2019-04-20T02:59:46.780Z,11.54
2019-04-20T03:00:05.169Z,11.44
2019-04-20T03:00:33.448Z,11.45
2019-04-20T03:01:09.476Z,11.45
2019-04-20T03:01:49.995Z,11.41
2019-04-20T03:02:26.754Z,11.45
2019-04-20T03:03:03.094Z,11.56
2019-04-20T03:03:38.986Z,11.69
2019-04-20T03:04:25.566Z,11.75
2019-04-20T03:05:06.225Z,11.77
2019-04-20T03:05:43.103Z,11.66
2019-04-20T03:06:26.130Z,11.62
2019-04-20T03:07:07.783Z,11.66
2019-04-20T03:07:56.964Z,11.77
2019-04-20T03:08:30.271Z,11.72
2019-04-20T03:09:19.676Z,11.72
2019-04-20T03:09:56.152Z,11.67
2019-04-20T03:10:40.753Z,11.64
2019-04-20T03:11:20.709Z,11.67
2019-04-20T03:12:38.241Z,11.74
2019-04-20T03:13:18.118Z,11.78
2019-04-20T03:13:57.685Z,11.72
2019-04-20T03:14:34.544Z,11.81
2019-04-20T03:15:21.662Z,11.81
2019-04-20T03:15:59.112Z,11.81
2019-04-20T03:16:34.430Z,11.74
2019-04-20T03:17:20.120Z,11.77
2019-04-20T03:18:02.057Z,11.69
2019-04-20T03:18:39.503Z,11.62
2019-04-20T03:19:15.817Z,11.7
2019-04-20T03:19:55.448Z,11.63
2019-04-20T03:20:45.831Z,11.7
2019-04-20T03:21:24.418Z,11.87
2019-04-20T03:22:07.521Z,11.87
2019-04-20T03:23:04.040Z,11.97
2019-04-20T03:23:35.148Z,11.93
2019-04-20T03:24:11.538Z,11.82
2019-04-20T03:24:48.406Z,11.94
2019-04-20T03:25:29.467Z,11.85
2019-04-20T03:26:04.910Z,11.93
2019-04-20T03:26:40.040Z,11.85
2019-04-20T03:27:23.519Z,11.75
2019-04-20T03:28:10.205Z,11.79
2019-04-20T03:28:42.750Z,11.75
2019-04-20T03:29:20.340Z,11.7
2019-04-20T03:30:14.491Z,11.67
2019-04-20T03:31:19.977Z,11.63
2019-04-20T03:31:52.114Z,11.64
2019-04-20T03:32:49.566Z,11.63
2019-04-20T03:33:48.874Z,11.59
2019-04-20T03:34:37.378Z,11.51
2019-04-20T03:35:05.006Z,11.51
2019-04-20T03:35:32.780Z,11.6
2019-04-20T03:36:17.815Z,11.66
2019-04-20T03:36:59.022Z,11.62
2019-04-20T03:37:36.177Z,11.57
2019-04-20T03:38:14.079Z,11.6
2019-04-20T03:38:53.121Z,11.54
2019-04-20T03:39:31.169Z,11.46
2019-04-20T03:40:08.163Z,11.45
2019-04-20T03:40:45.091Z,11.45
2019-04-20T03:41:24.045Z,11.46
2019-04-20T03:41:57.014Z,11.51
2019-04-20T03:42:35.426Z,11.53
2019-04-20T03:43:16.005Z,11.49
2019-04-20T03:44:03.053Z,11.56
2019-04-20T03:44:37.900Z,11.51
2019-04-20T03:45:19.881Z,11.63
2019-04-20T03:46:02.888Z,11.51
2019-04-20T03:46:45.456Z,11.62
2019-04-20T03:47:30.113Z,11.66
2019-04-20T03:48:08.911Z,11.79
2019-04-20T03:48:54.501Z,11.75
2019-04-20T03:49:41.868Z,11.81
2019-04-20T03:50:23.859Z,11.64
2019-04-20T03:50:56.268Z,11.63
2019-04-20T03:51:39.594Z,11.64
2019-04-20T03:52:19.063Z,11.6
2019-04-20T03:53:02.364Z,11.53
2019-04-20T03:53:39.146Z,11.46
2019-04-20T03:54:15.608Z,11.44
2019-04-20T03:54:51.969Z,11.42
2019-04-20T03:55:39.273Z,11.36
2019-04-20T03:56:27.819Z,11.3
2019-04-20T03:56:59.475Z,11.36
2019-04-20T03:57:45.478Z,11.3
2019-04-20T03:58:23.620Z,11.26
2019-04-20T03:59:00.785Z,11.19
2019-04-20T03:59:41.118Z,11.2
2019-04-20T04:00:26.120Z,11.12
2019-04-20T04:01:03.705Z,11.11
2019-04-20T04:02:07.305Z,11.11
2019-04-20T04:02:37.325Z,10.99
2019-04-20T04:03:12.204Z,11.02
2019-04-20T04:03:52.934Z,11.01
2019-04-20T04:04:26.806Z,11.11
2019-04-20T04:05:04.154Z,11.08
2019-04-20T04:05:44.254Z,11.13
2019-04-20T04:06:17.426Z,11.08
2019-04-20T04:06:54.475Z,11.09
2019-04-20T04:07:36.807Z,11.01
2019-04-20T04:08:21.128Z,11.09
2019-04-20T04:09:02.243Z,11.06
2019-04-20T04:09:39.530Z,11.02
2019-04-20T04:10:24.631Z,10.99
2019-04-20T04:11:11.932Z,10.98
2019-04-20T04:11:48.233Z,10.95
2019-04-20T04:12:22.529Z,10.99
2019-04-20T04:12:54.601Z,11.03
2019-04-20T04:13:33.861Z,10.88
2019-04-20T04:14:15.624Z,10.9
2019-04-20T04:14:55.671Z,10.91
2019-04-20T04:15:42.142Z,10.9
2019-04-20T04:16:18.213Z,10.91
2019-04-20T04:16:59.148Z,10.93
2019-04-20T04:17:40.515Z,10.83
2019-04-20T04:18:24.082Z,10.98
2019-04-20T04:19:04.398Z,10.83
2019-04-20T04:19:41.640Z,10.88
2019-04-20T04:20:20.767Z,10.9
2019-04-20T04:21:03.512Z,10.95
2019-04-20T04:21:52.318Z,10.9
2019-04-20T04:22:28.431Z,10.99
2019-04-20T04:23:14.777Z,11.05
2019-04-20T04:23:54.141Z,11.16
2019-04-20T04:24:31.316Z,11.01
2019-04-20T04:25:12.024Z,11.08
2019-04-20T04:25:59.098Z,11.19
2019-04-20T04:26:33.866Z,11.12
2019-04-20T04:27:11.835Z,11.13
2019-04-20T04:28:01.179Z,11.17
2019-04-20T04:28:36.505Z,11.21
2019-04-20T05:06:18.221Z,12.55
2019-04-20T05:06:57.852Z,12.71
2019-04-20T05:07:38.198Z,12.8
2019-04-20T05:08:12.664Z,12.84
2019-04-20T05:08:49.551Z,13.01
2019-04-20T05:09:25.532Z,13.12
2019-04-20T05:10:05.645Z,13.27
2019-04-20T05:10:45.761Z,13.32
2019-04-20T05:11:25.989Z,13.46
2019-04-20T05:12:12.261Z,13.61
2019-04-20T05:12:48.052Z,13.66
2019-04-20T05:13:36.751Z,13.69
2019-04-20T05:14:12.235Z,13.93
2019-04-20T05:14:57.800Z,14.08
2019-04-20T05:15:42.227Z,14.17
2019-04-20T05:16:23.348Z,14.29
2019-04-20T05:17:01.405Z,14.35
2019-04-20T05:17:49.930Z,14.56
2019-04-20T05:18:34.242Z,14.63
2019-04-20T05:19:13.124Z,14.66
2019-04-20T05:19:52.481Z,14.83
2019-04-20T05:20:26.768Z,14.91
2019-04-20T05:21:09.721Z,15.11
2019-04-20T05:21:58.519Z,15.18
2019-04-20T05:22:30.725Z,15.3
2019-04-20T05:23:08.394Z,15.46
2019-04-20T05:23:44.271Z,15.59
2019-04-20T05:24:25.395Z,15.78
2019-04-20T05:25:10.494Z,15.91
2019-04-20T05:25:56.785Z,16.06
2019-04-20T05:26:35.749Z,16.16
2019-04-20T05:27:13.067Z,16.33
2019-04-20T05:27:55.907Z,16.44
2019-04-20T05:28:27.241Z,16.55
2019-04-20T05:29:05.340Z,16.6
2019-04-20T05:29:39.360Z,16.78
2019-04-20T05:30:18.037Z,16.96
2019-04-20T05:31:01.405Z,17
2019-04-20T05:31:43.062Z,17.18
2019-04-20T05:32:29.371Z,17.28
2019-04-20T05:33:04.534Z,17.38
2019-04-20T05:34:00.853Z,17.46
2019-04-20T05:34:44.667Z,17.53
2019-04-20T05:35:21.360Z,17.71
2019-04-20T05:36:00.760Z,17.86
2019-04-20T05:36:41.139Z,17.86
2019-04-20T05:37:27.045Z,17.96
2019-04-20T05:38:06.242Z,18.13
2019-04-20T05:38:54.102Z,18.16
2019-04-20T05:39:26.424Z,18.25
2019-04-20T05:40:04.217Z,18.36
2019-04-20T05:40:45.802Z,18.5
2019-04-20T05:41:21.151Z,18.56
2019-04-20T05:42:00.412Z,18.6
2019-04-20T05:42:42.502Z,18.69
2019-04-20T05:43:20.371Z,18.69
2019-04-20T05:43:59.044Z,18.83
2019-04-20T05:44:45.427Z,18.91
2019-04-20T05:45:20.411Z,18.93
2019-04-20T05:46:00.784Z,19.05
2019-04-20T05:46:45.686Z,19.09
2019-04-20T05:47:26.410Z,19.2
2019-04-20T05:48:02.074Z,19.12
2019-04-20T05:48:50.306Z,19.28
2019-04-20T05:49:34.228Z,19.31
2019-04-20T05:50:00.609Z,19.46
2019-04-20T05:50:48.086Z,19.55
2019-04-20T05:51:34.893Z,19.46
2019-04-20T05:52:23.890Z,19.55
2019-04-20T05:52:55.980Z,19.62
2019-04-20T05:53:32.186Z,19.7
2019-04-20T05:54:13.381Z,19.83
2019-04-20T05:54:50.462Z,19.76
2019-04-20T05:55:32.860Z,19.9
2019-04-20T05:56:08.268Z,20.01
2019-04-20T05:56:49.941Z,20
2019-04-20T05:57:34.729Z,19.89
2019-04-20T05:58:16.006Z,19.98
2019-04-20T05:58:56.304Z,20.08
2019-04-20T05:59:32.196Z,20.07
2019-04-20T06:00:18.827Z,19.95
2019-04-20T06:01:00.065Z,19.89
2019-04-20T06:01:37.791Z,19.97
2019-04-20T06:02:15.506Z,19.94
2019-04-20T06:02:53.631Z,20.1
2019-04-20T06:03:36.635Z,20.12
2019-04-20T06:04:12.705Z,20.12
2019-04-20T06:05:44.752Z,20.42
2019-04-20T06:06:13.672Z,20.53
2019-04-20T06:06:59.442Z,20.58
2019-04-20T06:07:41.868Z,20.54
2019-04-20T06:08:31.884Z,20.54
2019-04-20T06:09:05.046Z,20.69
2019-04-20T06:09:39.506Z,20.75
2019-04-20T06:10:25.822Z,20.97
2019-04-20T06:11:00.262Z,20.97
2019-04-20T06:11:54.875Z,21.05
2019-04-20T06:12:25.007Z,21.22
2019-04-20T06:13:00.053Z,21.34
2019-04-20T06:13:37.718Z,21.51
2019-04-20T06:14:09.932Z,21.7
2019-04-20T06:14:59.696Z,21.79
2019-04-20T06:15:42.667Z,21.85
2019-04-20T06:16:22.152Z,21.79
2019-04-20T06:17:08.660Z,21.83
2019-04-20T06:17:43.162Z,21.96
2019-04-20T06:18:20.061Z,22.05
2019-04-20T06:19:13.945Z,21.96
2019-04-20T06:19:43.629Z,22.09
2019-04-20T06:20:30.908Z,22.17
2019-04-20T06:21:13.341Z,22.11
2019-04-20T06:21:50.182Z,22.23
2019-04-20T06:22:34.638Z,22.23
2019-04-20T06:23:11.687Z,22.33
2019-04-20T06:24:01.659Z,22.35
2019-04-20T06:24:39.181Z,22.41
2019-04-20T06:25:21.677Z,22.56
2019-04-20T06:26:03.457Z,22.63
2019-04-20T06:26:43.298Z,22.72
2019-04-20T06:27:07.963Z,22.76
2019-04-20T06:27:50.996Z,22.85
2019-04-20T06:28:25.704Z,22.85
2019-04-20T06:29:09.103Z,22.99
2019-04-20T06:29:51.255Z,23.07
2019-04-20T06:30:27.859Z,23.06
2019-04-20T06:31:17.833Z,23.19
2019-04-20T06:31:51.661Z,23.14
2019-04-20T06:32:38.568Z,23.12
2019-04-20T06:33:21.397Z,23.22
2019-04-20T06:34:07.305Z,23.31
2019-04-20T06:34:47.702Z,23.35
2019-04-20T06:35:30.146Z,23.41
2019-04-20T06:36:13.195Z,23.39
2019-04-20T06:36:37.860Z,23.54
2019-04-20T06:37:15.759Z,23.41
2019-04-20T06:38:00.254Z,23.52
2019-04-20T06:39:19.827Z,23.72
2019-04-20T06:40:02.554Z,23.77
2019-04-20T06:41:31.566Z,23.68
2019-04-20T06:42:39.445Z,23.84
2019-04-20T06:43:22.497Z,23.92
2019-04-20T06:44:08.026Z,23.96
2019-04-20T06:44:39.197Z,23.89
2019-04-20T06:45:26.586Z,23.9
2019-04-20T06:46:09.429Z,23.86
2019-04-20T06:46:52.281Z,23.84
2019-04-20T06:47:23.936Z,23.86
2019-04-20T06:48:05.525Z,23.81
2019-04-20T06:48:45.702Z,23.86
2019-04-20T06:49:28.753Z,23.87
2019-04-20T06:50:06.112Z,23.92
2019-04-20T06:50:43.822Z,24.05
2019-04-20T06:51:27.469Z,24.12
2019-04-20T06:52:15.117Z,24.12
2019-04-20T06:52:42.098Z,24.15
2019-04-20T06:53:31.731Z,24.14
2019-04-20T06:53:59.337Z,24.12
2019-04-20T06:54:48.129Z,24.09
2019-04-20T06:55:24.952Z,23.86
2019-04-20T06:56:15.367Z,23.93
2019-04-20T06:56:53.907Z,23.81
2019-04-20T06:57:30.896Z,23.99
2019-04-20T06:58:27.296Z,24.09
2019-04-20T06:58:49.103Z,24.16
2019-04-20T06:59:37.420Z,24.15
2019-04-20T07:00:56.217Z,24.18
2019-04-20T07:01:41.689Z,24.16
2019-04-20T07:02:53.736Z,24.34
2019-04-20T07:03:51.127Z,24.41
2019-04-20T07:04:33.172Z,24.45
2019-04-20T07:05:30.058Z,24.41
2019-04-20T07:06:33.735Z,24.42
2019-04-20T07:07:02.160Z,24.51
2019-04-20T07:07:35.321Z,24.56
2019-04-20T07:08:32.884Z,24.63
2019-04-20T07:09:05.992Z,24.66
2019-04-20T07:09:45.969Z,24.75
2019-04-20T07:11:03.641Z,24.92
2019-04-20T07:11:42.412Z,24.93
2019-04-20T07:12:16.618Z,25.07
2019-04-20T07:12:55.064Z,25.22
2019-04-20T07:13:30.742Z,25.23
2019-04-20T07:14:06.496Z,25.19
2019-04-20T07:14:52.363Z,25.27
2019-04-20T07:15:36.283Z,25.24
2019-04-20T07:16:20.979Z,25.2
2019-04-20T07:17:04.733Z,25.2
2019-04-20T07:18:29.511Z,25.26
2019-04-20T07:19:06.020Z,25.42
2019-04-20T07:19:44.241Z,25.38
2019-04-20T07:20:23.287Z,25.45
2019-04-20T07:21:05.169Z,25.53
2019-04-20T07:22:01.657Z,25.59
2019-04-20T07:22:33.367Z,25.63
2019-04-20T07:23:16.857Z,25.74
2019-04-20T07:23:46.384Z,25.61
2019-04-20T07:24:30.402Z,25.61
2019-04-20T07:25:04.892Z,25.72
2019-04-20T07:25:47.145Z,25.69
2019-04-20T07:26:28.905Z,25.6
2019-04-20T07:27:05.987Z,25.59
2019-04-20T07:28:31.153Z,25.61
2019-04-20T07:29:15.207Z,25.72
2019-04-20T07:29:51.296Z,25.81
2019-04-20T07:30:29.468Z,25.94
2019-04-20T07:31:06.607Z,26.01
2019-04-20T07:31:48.336Z,26.01
2019-04-20T07:32:30.020Z,26.24
2019-04-20T07:33:15.481Z,26.38
2019-04-20T07:33:56.618Z,26.46
2019-04-20T07:34:31.611Z,26.53
2019-04-20T07:35:13.897Z,26.6
2019-04-20T07:35:50.354Z,26.54
2019-04-20T07:36:37.298Z,26.64
2019-04-20T07:37:34.972Z,26.59
2019-04-20T07:38:39.472Z,26.61
2019-04-20T07:39:21.008Z,26.59
2019-04-20T07:39:58.661Z,26.57
2019-04-20T07:40:35.343Z,26.71
2019-04-20T07:41:25.817Z,26.6
2019-04-20T07:41:59.932Z,26.68
2019-04-20T07:42:40.397Z,26.65
2019-04-20T07:43:14.495Z,26.64
2019-04-20T07:44:17.957Z,26.68
2019-04-20T07:44:40.968Z,26.72
2019-04-20T07:45:25.734Z,26.75
2019-04-20T07:45:59.984Z,26.68
2019-04-20T07:46:53.979Z,26.69
2019-04-20T07:47:29.557Z,26.81
2019-04-20T07:48:05.998Z,26.71
2019-04-20T07:48:41.996Z,26.65
2019-04-20T07:49:24.327Z,26.64
2019-04-20T07:50:01.020Z,26.64
2019-04-20T07:50:37.172Z,26.6
2019-04-20T07:51:11.889Z,26.57
2019-04-20T07:51:47.111Z,26.59
2019-04-20T07:52:38.343Z,26.65
2019-04-20T07:53:19.865Z,26.73
2019-04-20T07:54:16.399Z,26.75
2019-04-20T07:54:58.277Z,26.75
2019-04-20T07:56:04.345Z,26.79
2019-04-20T07:56:47.452Z,26.71
2019-04-20T07:57:24.101Z,26.66
2019-04-20T07:58:01.223Z,26.6
2019-04-20T07:58:38.662Z,26.57
2019-04-20T07:59:17.473Z,26.64
2019-04-20T08:00:04.449Z,26.61
2019-04-20T08:01:01.189Z,26.6
2019-04-20T08:01:36.011Z,26.83
2019-04-20T08:02:15.584Z,26.81
2019-04-20T08:02:57.083Z,26.78
2019-04-20T08:03:37.902Z,26.84
2019-04-20T08:04:12.911Z,26.88
2019-04-20T08:04:46.957Z,26.91
2019-04-20T08:05:25.340Z,26.98
2019-04-20T08:06:02.193Z,27.06
2019-04-20T08:06:40.619Z,27.2
2019-04-20T08:07:15.539Z,27.27
2019-04-20T08:08:14.576Z,27.34
2019-04-20T08:08:48.631Z,27.5
2019-04-20T08:09:25.570Z,27.63
2019-04-20T08:10:01.868Z,27.68
2019-04-20T08:10:53.487Z,27.86
2019-04-20T08:11:37.793Z,27.99
2019-04-20T08:12:25.466Z,28.21
2019-04-20T08:13:00.350Z,28.27
2019-04-20T08:13:45.241Z,28.32
2019-04-20T08:14:23.875Z,28.27
2019-04-20T08:15:03.385Z,28.46
2019-04-20T08:15:48.725Z,28.57
2019-04-20T08:16:30.789Z,28.72
2019-04-20T08:17:13.650Z,28.69
2019-04-20T08:18:06.142Z,28.7
2019-04-20T08:18:25.736Z,28.85
2019-04-20T08:18:58.390Z,29.02
2019-04-20T08:19:39.572Z,29
2019-04-20T08:20:19.842Z,29.1
2019-04-20T08:21:02.266Z,29.25
2019-04-20T08:21:47.136Z,29.39
2019-04-20T08:22:26.433Z,29.55
2019-04-20T08:23:04.518Z,29.63
2019-04-20T08:23:43.694Z,29.55
2019-04-20T08:24:21.147Z,29.57
2019-04-20T08:25:01.074Z,29.74
2019-04-20T08:25:39.434Z,29.94
2019-04-20T08:26:16.111Z,29.95
2019-04-20T08:26:52.820Z,30.06
2019-04-20T08:27:29.595Z,30.22
2019-04-20T08:28:16.336Z,30.29
2019-04-20T08:28:54.983Z,30.46
2019-04-20T08:29:44.938Z,30.56
2019-04-20T08:30:29.026Z,30.53
2019-04-20T08:31:04.895Z,30.61
2019-04-20T08:31:43.378Z,30.66
2019-04-20T08:32:27.847Z,30.67
2019-04-20T08:33:09.350Z,30.68
2019-04-20T08:34:01.379Z,30.7
2019-04-20T08:34:34.934Z,30.72
2019-04-20T08:35:13.715Z,30.72
2019-04-20T08:35:58.100Z,30.82
2019-04-20T08:36:32.968Z,30.9
2019-04-20T08:37:10.886Z,30.88
2019-04-20T08:38:14.314Z,30.88
2019-04-20T08:38:57.612Z,31.03
2019-04-20T08:39:28.000Z,30.96
2019-04-20T08:40:01.293Z,31.05
2019-04-20T08:40:37.112Z,31.16
2019-04-20T08:41:12.689Z,31.2
2019-04-20T08:42:00.048Z,31.13
2019-04-20T08:42:49.448Z,31.16
2019-04-20T08:43:29.354Z,31.13
2019-04-20T08:43:58.348Z,31.16
2019-04-20T08:44:53.556Z,31.03
2019-04-20T08:45:23.396Z,30.97
2019-04-20T08:45:58.517Z,30.9
2019-04-20T08:46:40.174Z,30.85
2019-04-20T08:47:27.079Z,30.66
2019-04-20T08:48:02.614Z,30.45
2019-04-20T08:48:40.303Z,30.34
2019-04-20T08:49:24.884Z,30.29
2019-04-20T08:50:09.266Z,30.29
2019-04-20T08:50:44.870Z,30.29
2019-04-20T08:51:18.967Z,30.21
2019-04-20T08:52:11.219Z,30.15
2019-04-20T08:53:03.287Z,30.08
2019-04-20T08:53:25.778Z,30.06
2019-04-20T08:54:02.088Z,30.1
2019-04-20T08:54:37.581Z,30.16
2019-04-20T08:55:23.219Z,30.25
2019-04-20T08:55:58.969Z,30.29
2019-04-20T08:56:35.896Z,30.28
2019-04-20T08:57:06.974Z,30.37
2019-04-20T08:57:47.059Z,30.46
2019-04-20T08:58:27.463Z,30.6
2019-04-20T08:59:09.331Z,30.54
2019-04-20T08:59:51.026Z,30.68
2019-04-20T09:00:32.021Z,30.81
2019-04-20T09:01:14.066Z,30.81
2019-04-20T09:01:50.990Z,30.85
2019-04-20T09:02:30.387Z,30.97
2019-04-20T09:03:17.880Z,31.01
2019-04-20T09:03:58.728Z,31.1
2019-04-20T09:04:36.991Z,31.13
2019-04-20T09:05:24.716Z,31.16
2019-04-20T09:06:00.922Z,31.12
2019-04-20T09:06:45.310Z,31.09
2019-04-20T09:07:18.546Z,31.2
2019-04-20T09:08:02.273Z,31.35
2019-04-20T09:08:46.408Z,31.41
2019-04-20T09:09:48.820Z,31.53
2019-04-20T09:10:16.198Z,31.65
2019-04-20T09:10:53.284Z,31.76
2019-04-20T09:11:28.470Z,31.87
2019-04-20T09:12:14.318Z,31.97
2019-04-20T09:12:53.037Z,32.14
2019-04-20T09:13:26.773Z,32.09
2019-04-20T09:14:00.120Z,32.24
2019-04-20T09:14:39.395Z,32.34
2019-04-20T09:15:21.084Z,32.44
2019-04-20T09:16:00.330Z,32.41
2019-04-20T09:16:47.428Z,32.39
2019-04-20T09:17:27.026Z,32.32
2019-04-20T09:18:06.458Z,32.24
2019-04-20T09:18:50.056Z,32.31
2019-04-20T09:19:29.747Z,32.27
2019-04-20T09:20:10.242Z,32.27
2019-04-20T09:20:52.575Z,32.16
2019-04-20T09:21:35.416Z,32.03
2019-04-20T09:22:15.921Z,31.9
2019-04-20T09:22:54.474Z,31.74
2019-04-20T09:23:36.158Z,31.69
2019-04-20T09:24:26.615Z,31.74
2019-04-20T09:25:07.004Z,31.72
2019-04-20T09:25:53.198Z,31.68
2019-04-20T09:26:19.947Z,31.4
2019-04-20T09:27:04.426Z,31.27
2019-04-20T09:27:34.626Z,31.13
2019-04-20T09:28:18.585Z,31.01
2019-04-20T09:30:50.383Z,31.31
2019-04-20T09:31:34.943Z,31.32
2019-04-20T09:32:16.646Z,31.57
2019-04-20T09:32:53.327Z,31.59
2019-04-20T09:33:39.722Z,31.76
2019-04-20T09:34:19.926Z,31.85
2019-04-20T09:34:59.478Z,31.53
2019-04-20T09:35:42.742Z,31.31
2019-04-20T09:36:17.722Z,31.16
2019-04-20T09:36:58.264Z,30.78
2019-04-20T09:37:42.714Z,30.49
2019-04-20T09:38:18.901Z,29.94
2019-04-20T09:38:56.472Z,29.71
2019-04-20T09:39:32.526Z,29.58
2019-04-20T09:40:25.328Z,29.47
2019-04-20T09:41:01.005Z,29.58